createdAt,value
2023-05-14T00:00:48.578Z,77031.41
2023-05-14T00:02:22.531Z,77047.22
2023-05-14T00:03:56.474Z,77033.38
2023-05-14T00:05:29.914Z,77031.41
2023-05-14T00:07:03.236Z,77047.22
2023-05-14T00:08:37.203Z,77059.09
2023-05-14T00:10:11.105Z,77047.22
2023-05-14T00:11:44.833Z,77067.00
2023-05-14T00:13:18.262Z,77082.81
2023-05-14T00:14:51.510Z,77096.66
2023-05-14T00:16:25.066Z,77086.78
2023-05-14T00:17:59.009Z,77102.59
2023-05-14T00:19:32.300Z,77112.47
2023-05-14T00:21:06.051Z,77126.31
2023-05-14T00:22:40.703Z,77142.16
2023-05-14T00:24:14.004Z,77120.41
2023-05-14T00:25:47.546Z,77098.63
2023-05-14T00:27:21.525Z,77080.84
2023-05-14T00:28:55.231Z,77080.84
2023-05-14T00:30:28.757Z,77074.91
2023-05-14T00:32:02.017Z,77063.03
2023-05-14T00:33:35.799Z,77065.03
2023-05-14T00:35:09.853Z,77082.81
2023-05-14T00:36:43.182Z,77096.66
2023-05-14T00:38:19.934Z,77104.56
2023-05-14T00:39:53.536Z,77098.63
2023-05-14T00:41:26.841Z,77090.72
2023-05-14T00:43:00.507Z,77088.75
2023-05-14T00:44:34.471Z,77082.81
2023-05-14T00:46:08.217Z,77094.69
2023-05-14T00:47:41.937Z,77082.81
2023-05-14T00:49:16.106Z,77070.94
2023-05-14T00:50:51.353Z,77078.88
2023-05-14T00:52:25.078Z,77084.78
2023-05-14T00:53:58.957Z,77102.59
2023-05-14T00:55:32.856Z,77094.69
2023-05-14T00:57:10.571Z,77090.72
2023-05-14T00:58:44.230Z,77110.50
2023-05-14T01:00:17.975Z,77106.56
2023-05-14T01:01:51.644Z,77100.63
2023-05-14T01:03:25.279Z,77086.78
2023-05-14T01:04:59.092Z,77076.88
2023-05-14T01:06:47.753Z,77043.25
2023-05-14T01:08:32.728Z,77035.34
2023-05-14T01:10:35.975Z,77039.31
2023-05-14T01:12:30.346Z,77053.16
2023-05-14T01:14:32.303Z,77094.69
2023-05-14T01:16:10.207Z,77055.13
2023-05-14T01:17:52.223Z,77033.38
2023-05-14T01:19:42.278Z,77021.50
2023-05-14T01:21:34.823Z,77017.56
2023-05-14T01:23:08.235Z,77009.66
2023-05-14T01:24:42.292Z,76981.97
2023-05-14T01:26:15.959Z,76976.03
2023-05-14T01:27:59.452Z,76966.13
2023-05-14T01:29:34.980Z,76972.06
2023-05-14T01:31:16.899Z,76979.97
2023-05-14T01:32:54.303Z,76976.03
2023-05-14T01:34:31.656Z,76950.31
2023-05-14T01:36:06.040Z,76940.44
2023-05-14T01:37:41.454Z,76964.16
2023-05-14T01:39:19.511Z,76920.66
2023-05-14T01:40:55.162Z,76920.66
2023-05-14T01:42:30.100Z,76978.00
2023-05-14T01:44:04.320Z,76916.69
2023-05-14T01:45:37.776Z,76918.69
2023-05-14T01:47:11.140Z,76934.50
2023-05-14T01:48:44.376Z,76926.59
2023-05-14T01:50:18.337Z,76944.38
2023-05-14T01:51:51.986Z,76916.69
2023-05-14T01:53:25.793Z,76891.00
2023-05-14T01:55:00.487Z,76944.38
2023-05-14T01:56:34.245Z,76930.53
2023-05-14T01:58:07.653Z,76904.84
2023-05-14T01:59:40.903Z,76891.00
2023-05-14T02:01:14.754Z,76881.09
2023-05-14T02:02:49.029Z,76960.22
2023-05-14T02:04:23.093Z,76983.94
2023-05-14T02:05:56.729Z,76948.34
2023-05-14T02:07:30.572Z,76952.28
2023-05-14T02:09:05.780Z,76928.56
2023-05-14T02:10:38.947Z,76898.91
2023-05-14T02:12:12.662Z,76885.06
2023-05-14T02:13:46.270Z,76861.34
2023-05-14T02:15:19.708Z,76912.75
2023-05-14T02:16:53.210Z,76885.06
2023-05-14T02:18:29.937Z,76857.38
2023-05-14T02:20:04.525Z,76865.28
2023-05-14T02:21:48.465Z,76885.06
2023-05-14T02:23:31.004Z,76892.97
2023-05-14T02:25:11.721Z,76889.00
2023-05-14T02:26:44.979Z,76845.50
2023-05-14T02:28:18.716Z,76802.00
2023-05-14T02:29:52.544Z,76798.03
2023-05-14T02:31:26.106Z,76766.41
2023-05-14T02:32:59.564Z,76758.50
2023-05-14T02:34:34.974Z,76742.69
2023-05-14T02:36:08.490Z,76746.63
2023-05-14T02:37:41.782Z,76766.41
2023-05-14T02:39:15.229Z,76742.69
2023-05-14T02:40:52.613Z,76734.78
2023-05-14T02:42:26.353Z,76817.81
2023-05-14T02:43:59.673Z,76792.13
2023-05-14T02:45:33.395Z,76805.97
2023-05-14T02:47:07.074Z,76794.09
2023-05-14T02:48:40.310Z,76817.81
2023-05-14T02:50:14.136Z,76778.28
2023-05-14T02:51:47.692Z,76742.69
2023-05-14T02:53:20.993Z,76716.97
2023-05-14T02:54:54.377Z,76716.97
2023-05-14T02:56:27.953Z,76713.03
2023-05-14T02:58:01.111Z,76675.44
2023-05-14T02:59:34.701Z,76643.81
2023-05-14T03:01:09.036Z,76612.16
2023-05-14T03:02:43.940Z,76584.47
2023-05-14T03:04:19.117Z,76570.63
2023-05-14T03:05:52.797Z,76564.72
2023-05-14T03:07:26.397Z,76556.81
2023-05-14T03:09:00.140Z,76542.97
2023-05-14T03:10:34.199Z,76542.97
2023-05-14T03:12:08.743Z,76564.72
2023-05-14T03:13:42.413Z,76554.81
2023-05-14T03:15:15.961Z,76537.03
2023-05-14T03:16:49.424Z,76604.25
2023-05-14T03:18:23.231Z,76600.31
2023-05-14T03:19:56.596Z,76550.88
2023-05-14T03:21:30.210Z,76533.06
2023-05-14T03:23:03.600Z,76477.72
2023-05-14T03:24:40.361Z,76457.94
2023-05-14T03:26:14.088Z,76414.44
2023-05-14T03:27:47.932Z,76452.00
2023-05-14T03:29:21.345Z,76465.84
2023-05-14T03:30:55.253Z,76455.97
2023-05-14T03:32:29.390Z,76477.72
2023-05-14T03:34:03.077Z,76469.78
2023-05-14T03:35:36.318Z,76465.84
2023-05-14T03:37:10.241Z,76465.84
2023-05-14T03:38:43.346Z,76467.81
2023-05-14T03:40:17.307Z,76440.13
2023-05-14T03:41:51.030Z,76434.19
2023-05-14T03:43:24.834Z,76489.56
2023-05-14T03:44:58.344Z,76548.88
2023-05-14T03:46:31.829Z,76513.28
2023-05-14T03:48:06.909Z,76477.72
2023-05-14T03:49:40.470Z,76495.50
2023-05-14T03:51:16.314Z,76515.28
2023-05-14T03:52:49.611Z,76505.38
2023-05-14T03:54:22.591Z,76497.47
2023-05-14T03:55:55.766Z,76485.63
2023-05-14T03:57:29.566Z,76473.75
2023-05-14T03:59:03.219Z,76459.91
2023-05-14T04:00:38.441Z,76461.88
2023-05-14T04:02:11.668Z,76428.28
2023-05-14T04:03:45.424Z,76422.34
2023-05-14T04:05:20.075Z,76402.56
2023-05-14T04:06:54.615Z,76390.69
2023-05-14T04:08:28.303Z,76372.91
2023-05-14T04:10:04.714Z,76366.97
2023-05-14T04:11:41.516Z,76400.59
2023-05-14T04:13:15.055Z,76384.78
2023-05-14T04:14:48.939Z,76414.44
2023-05-14T04:16:22.841Z,76438.16
2023-05-14T04:17:56.380Z,76414.44
2023-05-14T04:19:30.437Z,76406.53
2023-05-14T04:21:04.317Z,76366.97
2023-05-14T04:22:37.880Z,76357.09
2023-05-14T04:24:11.535Z,76363.03
2023-05-14T04:25:45.137Z,76378.84
2023-05-14T04:27:21.899Z,76384.78
2023-05-14T04:28:55.082Z,76366.97
2023-05-14T04:30:28.786Z,76365.00
2023-05-14T04:32:02.812Z,76295.78
2023-05-14T04:33:36.819Z,76299.75
2023-05-14T04:35:13.480Z,76264.16
2023-05-14T04:36:47.135Z,76232.53
2023-05-14T04:38:21.012Z,76220.66
2023-05-14T04:39:54.530Z,76196.94
2023-05-14T04:41:28.232Z,76185.06
2023-05-14T04:43:01.980Z,76092.16
2023-05-14T04:44:39.150Z,76137.63
2023-05-14T04:46:12.533Z,76088.19
2023-05-14T04:47:47.301Z,76064.47
2023-05-14T04:49:21.611Z,75945.84
2023-05-14T04:50:55.201Z,75734.28
2023-05-14T04:52:28.884Z,75623.59
2023-05-14T04:54:02.520Z,75593.94
2023-05-14T04:55:36.195Z,75463.47
2023-05-14T04:57:09.784Z,75406.13
2023-05-14T04:58:43.225Z,75338.91
2023-05-14T05:00:17.799Z,75319.16
2023-05-14T05:01:52.215Z,75358.69
2023-05-14T05:03:26.211Z,75398.22
2023-05-14T05:05:00.618Z,75384.38
2023-05-14T05:06:34.267Z,75362.63
2023-05-14T05:08:07.704Z,75311.25
2023-05-14T05:09:41.529Z,75334.97
2023-05-14T05:11:14.950Z,75333.00
2023-05-14T05:12:48.544Z,75251.94
2023-05-14T05:14:22.022Z,75139.28
2023-05-14T05:15:55.707Z,75093.81
2023-05-14T05:17:30.962Z,75000.91
2023-05-14T05:19:04.483Z,75093.81
2023-05-14T05:20:38.365Z,75006.84
2023-05-14T05:22:12.010Z,75087.88
2023-05-14T05:23:45.426Z,75058.22
2023-05-14T05:25:18.870Z,74993.00
2023-05-14T05:26:52.422Z,74840.81
2023-05-14T05:28:26.153Z,74941.59
2023-05-14T05:30:01.818Z,74876.38
2023-05-14T05:31:37.078Z,74872.44
2023-05-14T05:33:10.670Z,74896.16
2023-05-14T05:34:47.493Z,75026.59
2023-05-14T05:36:21.102Z,75101.72
2023-05-14T05:37:54.522Z,74994.97
2023-05-14T05:39:28.184Z,74975.22
2023-05-14T05:41:01.596Z,74856.63
2023-05-14T05:42:35.365Z,74769.66
2023-05-14T05:44:08.927Z,74797.31
2023-05-14T05:45:42.363Z,74753.84
2023-05-14T05:47:16.330Z,74625.38
2023-05-14T05:48:50.042Z,74781.50
2023-05-14T05:50:23.883Z,74765.69
2023-05-14T05:51:57.626Z,74702.44
2023-05-14T05:53:31.130Z,74635.25
2023-05-14T05:55:04.945Z,74684.66
2023-05-14T05:56:38.394Z,74684.66
2023-05-14T05:58:11.696Z,74726.16
2023-05-14T05:59:44.869Z,74741.97
2023-05-14T06:01:18.560Z,74773.59
2023-05-14T06:02:51.829Z,74767.66
2023-05-14T06:04:25.423Z,74722.22
2023-05-14T06:05:59.350Z,74641.19
2023-05-14T06:07:33.126Z,74678.72
2023-05-14T06:09:07.302Z,74678.72
2023-05-14T06:10:41.218Z,74741.97
2023-05-14T06:12:14.660Z,74773.59
2023-05-14T06:13:48.151Z,74714.31
2023-05-14T06:15:21.536Z,74791.38
2023-05-14T06:16:55.914Z,74670.81
2023-05-14T06:18:29.689Z,74741.97
2023-05-14T06:20:03.174Z,74828.94
2023-05-14T06:21:36.503Z,74892.19
2023-05-14T06:23:11.662Z,74955.44
2023-05-14T06:24:45.601Z,74825.00
2023-05-14T06:26:19.281Z,74840.81
2023-05-14T06:27:53.766Z,74821.03
2023-05-14T06:29:27.271Z,74769.66
2023-05-14T06:31:00.850Z,74817.09
2023-05-14T06:32:34.607Z,74876.38
2023-05-14T06:34:08.501Z,74969.28
2023-05-14T06:35:42.274Z,74826.97
2023-05-14T06:37:15.921Z,74868.47
2023-05-14T06:38:49.695Z,74872.44
2023-05-14T06:40:23.964Z,74967.31
2023-05-14T06:41:57.743Z,74963.34
2023-05-14T06:43:31.982Z,74826.97
2023-05-14T06:45:06.759Z,74826.97
2023-05-14T06:46:42.496Z,74747.91
2023-05-14T06:48:15.977Z,74700.47
2023-05-14T06:49:49.789Z,74611.53
2023-05-14T06:51:23.820Z,74597.69
2023-05-14T06:52:57.169Z,74858.59
2023-05-14T06:54:31.545Z,74777.56
2023-05-14T06:56:05.543Z,74694.53
2023-05-14T06:57:40.814Z,74686.63
2023-05-14T06:59:14.674Z,74736.06
2023-05-14T07:00:51.243Z,74700.47
2023-05-14T07:02:24.688Z,74722.22
2023-05-14T07:03:58.694Z,74658.97
2023-05-14T07:05:32.901Z,74635.25
2023-05-14T07:07:06.676Z,74623.38
2023-05-14T07:08:40.754Z,74591.78
2023-05-14T07:10:14.894Z,74548.28
2023-05-14T07:11:48.763Z,74560.16
2023-05-14T07:13:22.336Z,74619.44
2023-05-14T07:14:57.495Z,74633.28
2023-05-14T07:16:31.358Z,74605.59
2023-05-14T07:18:05.611Z,74548.28
2023-05-14T07:19:39.103Z,74502.84
2023-05-14T07:21:12.750Z,74506.78
2023-05-14T07:22:46.532Z,74496.91
2023-05-14T07:24:20.196Z,74532.47
2023-05-14T07:25:56.545Z,74485.03
2023-05-14T07:27:30.719Z,74572.00
2023-05-14T07:29:03.969Z,74502.84
2023-05-14T07:30:37.458Z,74532.47
2023-05-14T07:32:12.814Z,74481.09
2023-05-14T07:33:48.546Z,74431.69
2023-05-14T07:35:22.284Z,74461.31
2023-05-14T07:36:56.429Z,74465.28
2023-05-14T07:38:30.285Z,74489.00
2023-05-14T07:40:04.238Z,74453.41
2023-05-14T07:41:38.723Z,74536.44
2023-05-14T07:43:12.523Z,74601.66
2023-05-14T07:44:46.319Z,74647.09
2023-05-14T07:46:19.834Z,74686.63
2023-05-14T07:47:53.576Z,74825.00
2023-05-14T07:49:27.985Z,74769.66
2023-05-14T07:51:01.733Z,74718.25
2023-05-14T07:52:36.318Z,74662.91
2023-05-14T07:54:09.856Z,74639.19
2023-05-14T07:55:44.848Z,74607.59
2023-05-14T07:57:19.347Z,74631.28
2023-05-14T07:58:53.241Z,74629.31
2023-05-14T08:00:27.132Z,74579.91
2023-05-14T08:02:00.569Z,74619.44
2023-05-14T08:03:34.673Z,74540.38
2023-05-14T08:05:09.526Z,74554.22
2023-05-14T08:06:43.549Z,74558.16
2023-05-14T08:08:17.614Z,74572.00
2023-05-14T08:09:51.193Z,74599.69
2023-05-14T08:11:24.560Z,74532.47
2023-05-14T08:12:58.113Z,74508.75
2023-05-14T08:14:31.472Z,74500.84
2023-05-14T08:16:04.924Z,74483.06
2023-05-14T08:17:38.492Z,74483.06
2023-05-14T08:19:13.529Z,74514.69
2023-05-14T08:20:47.729Z,74489.00
2023-05-14T08:22:21.060Z,74674.78
2023-05-14T08:23:54.718Z,74560.16
2023-05-14T08:25:28.340Z,74558.16
2023-05-14T08:27:02.639Z,74595.72
2023-05-14T08:28:36.246Z,74603.63
2023-05-14T08:30:10.909Z,74570.03
2023-05-14T08:31:44.297Z,74607.59
2023-05-14T08:33:18.697Z,74607.59
2023-05-14T08:34:52.504Z,74607.59
2023-05-14T08:36:26.495Z,74583.88
2023-05-14T08:37:59.798Z,74536.44
2023-05-14T08:39:33.455Z,74489.00
2023-05-14T08:41:08.050Z,74508.75
2023-05-14T08:42:41.907Z,74508.75
2023-05-14T08:44:19.417Z,74494.94
2023-05-14T08:45:58.201Z,74508.75
2023-05-14T08:47:32.253Z,74603.63
2023-05-14T08:49:38.388Z,74556.19
2023-05-14T08:51:12.056Z,74573.97
2023-05-14T08:52:45.936Z,74562.13
2023-05-14T08:54:19.954Z,74581.88
2023-05-14T08:55:54.697Z,74595.72
2023-05-14T08:57:31.542Z,74595.72
2023-05-14T08:59:05.485Z,74684.66
2023-05-14T09:00:39.073Z,74694.53
2023-05-14T09:02:15.638Z,74647.09
2023-05-14T09:03:50.101Z,74688.63
2023-05-14T09:05:25.013Z,74657.00
2023-05-14T09:07:02.167Z,74619.44
2023-05-14T09:08:36.820Z,74572.00
2023-05-14T09:10:11.082Z,74575.97
2023-05-14T09:11:48.350Z,74603.63
2023-05-14T09:13:22.301Z,74700.47
2023-05-14T09:14:55.892Z,74686.63
2023-05-14T09:16:29.495Z,74718.25
2023-05-14T09:18:05.492Z,74734.06
2023-05-14T09:19:44.223Z,74698.50
2023-05-14T09:21:19.619Z,74698.50
2023-05-14T09:22:57.155Z,74678.72
2023-05-14T09:24:31.195Z,74625.38
2023-05-14T09:26:06.471Z,74597.69
2023-05-14T09:27:40.262Z,74599.69
2023-05-14T09:29:15.022Z,74657.00
2023-05-14T09:30:52.618Z,74577.94
2023-05-14T09:32:26.172Z,74516.66
2023-05-14T09:34:01.002Z,74492.94
2023-05-14T09:35:34.728Z,74496.91
2023-05-14T09:37:09.745Z,74502.84
2023-05-14T09:38:45.623Z,74502.84
2023-05-14T09:40:21.031Z,74485.03
2023-05-14T09:41:55.258Z,74562.13
2023-05-14T09:43:28.631Z,74603.63
2023-05-14T09:45:02.129Z,74635.25
2023-05-14T09:46:36.355Z,74607.59
2023-05-14T09:48:11.023Z,74607.59
2023-05-14T09:49:44.482Z,74613.50
2023-05-14T09:51:21.408Z,74577.94
2023-05-14T09:52:56.497Z,74589.78
2023-05-14T09:54:30.356Z,74496.91
2023-05-14T09:56:04.049Z,74455.41
2023-05-14T09:57:37.495Z,74475.16
2023-05-14T09:59:11.299Z,74516.66
2023-05-14T10:00:46.660Z,74556.19
2023-05-14T10:02:25.920Z,74568.06
2023-05-14T10:04:00.301Z,74591.78
2023-05-14T10:05:37.930Z,74583.88
2023-05-14T10:07:11.639Z,74520.63
2023-05-14T10:08:46.144Z,74453.41
2023-05-14T10:10:27.992Z,74473.19
2023-05-14T10:12:02.935Z,74425.75
2023-05-14T10:13:42.608Z,74445.50
2023-05-14T10:15:24.745Z,74489.00
2023-05-14T10:17:04.216Z,74540.38
2023-05-14T10:18:43.361Z,74526.53
2023-05-14T10:20:18.130Z,74550.25
2023-05-14T10:22:01.916Z,74564.09
2023-05-14T10:23:38.316Z,74564.09
2023-05-14T10:25:12.319Z,74572.00
2023-05-14T10:26:46.249Z,74609.56
2023-05-14T10:28:19.883Z,74631.28
2023-05-14T10:29:57.313Z,74583.88
2023-05-14T10:31:54.660Z,74538.41
2023-05-14T10:33:28.790Z,74496.91
2023-05-14T10:35:02.632Z,74485.03
2023-05-14T10:36:36.295Z,74461.31
2023-05-14T10:38:09.674Z,74526.53
2023-05-14T10:39:43.894Z,74552.25
2023-05-14T10:41:18.227Z,74570.03
2023-05-14T10:42:52.053Z,74583.88
2023-05-14T10:44:25.494Z,74583.88
2023-05-14T10:46:01.390Z,74556.19
2023-05-14T10:47:41.109Z,74554.22
2023-05-14T10:49:14.838Z,74575.97
2023-05-14T10:50:56.122Z,74568.06
2023-05-14T10:52:30.619Z,74591.78
2023-05-14T10:54:03.940Z,74558.16
2023-05-14T10:55:39.350Z,74548.28
2023-05-14T10:57:13.128Z,74524.56
2023-05-14T10:58:46.712Z,74572.00
2023-05-14T11:00:20.463Z,74552.25
2023-05-14T11:01:56.740Z,74564.09
2023-05-14T11:03:34.528Z,74560.16
2023-05-14T11:05:17.885Z,74591.78
2023-05-14T11:06:54.451Z,74568.06
2023-05-14T11:08:29.577Z,74655.00
2023-05-14T11:10:07.946Z,74595.72
2023-05-14T11:11:41.798Z,74613.50
2023-05-14T11:13:17.228Z,74587.81
2023-05-14T11:14:51.272Z,74649.09
2023-05-14T11:16:25.384Z,74621.41
2023-05-14T11:17:59.436Z,74599.69
2023-05-14T11:19:33.332Z,74562.13
2023-05-14T11:21:07.303Z,74591.78
2023-05-14T11:22:42.121Z,74568.06
2023-05-14T11:24:15.448Z,74546.31
2023-05-14T11:25:49.081Z,74544.34
2023-05-14T11:27:24.505Z,74560.16
2023-05-14T11:28:57.746Z,74581.88
2023-05-14T11:30:32.222Z,74556.19
2023-05-14T11:32:08.805Z,74639.19
2023-05-14T11:33:42.855Z,74643.16
2023-05-14T11:35:17.635Z,74657.00
2023-05-14T11:36:51.084Z,74682.69
2023-05-14T11:38:24.634Z,74678.72
2023-05-14T11:40:02.706Z,74631.28
2023-05-14T11:41:37.125Z,74601.66
2023-05-14T11:43:13.351Z,74623.38
2023-05-14T11:44:49.327Z,74688.63
2023-05-14T11:46:22.933Z,74658.97
2023-05-14T11:47:56.694Z,74641.19
2023-05-14T11:49:36.178Z,74617.47
2023-05-14T11:51:09.585Z,74591.78
2023-05-14T11:52:43.799Z,74558.16
2023-05-14T11:54:17.464Z,74540.38
2023-05-14T11:55:51.256Z,74562.13
2023-05-14T11:57:24.565Z,74587.81
2023-05-14T11:59:01.227Z,74585.84
2023-05-14T12:00:34.702Z,74607.59
2023-05-14T12:02:13.628Z,74601.66
2023-05-14T12:03:47.168Z,74591.78
2023-05-14T12:05:21.475Z,74562.13
2023-05-14T12:06:55.548Z,74566.06
2023-05-14T12:08:33.358Z,74562.13
2023-05-14T12:10:07.289Z,74546.31
2023-05-14T12:11:40.739Z,74589.78
2023-05-14T12:13:18.055Z,74579.91
2023-05-14T12:14:53.020Z,74568.06
2023-05-14T12:16:34.829Z,74585.84
2023-05-14T12:18:23.334Z,74609.56
2023-05-14T12:19:58.010Z,74643.16
2023-05-14T12:21:32.339Z,74627.34
2023-05-14T12:23:05.631Z,74625.38
2023-05-14T12:24:39.625Z,74607.59
2023-05-14T12:26:13.443Z,74575.97
2023-05-14T12:27:47.201Z,74548.28
2023-05-14T12:29:22.582Z,74536.44
2023-05-14T12:30:59.686Z,74528.53
2023-05-14T12:32:34.494Z,74516.66
2023-05-14T12:34:07.892Z,74524.56
2023-05-14T12:35:41.972Z,74530.50
2023-05-14T12:37:19.041Z,74528.53
2023-05-14T12:39:01.861Z,74514.69
2023-05-14T12:40:37.177Z,74502.84
2023-05-14T12:42:10.424Z,74485.03
2023-05-14T12:43:45.261Z,74524.56
2023-05-14T12:45:18.689Z,74500.84
2023-05-14T12:46:52.363Z,74502.84
2023-05-14T12:48:26.613Z,74514.69
2023-05-14T12:50:00.417Z,74500.84
2023-05-14T12:51:34.658Z,74540.38
2023-05-14T12:53:08.190Z,74532.47
2023-05-14T12:54:43.814Z,74516.66
2023-05-14T12:56:17.119Z,74546.31
2023-05-14T12:57:50.874Z,74540.38
2023-05-14T12:59:24.236Z,74534.44
2023-05-14T13:00:58.088Z,74587.81
2023-05-14T13:02:31.510Z,74615.47
2023-05-14T13:04:06.298Z,74589.78
2023-05-14T13:05:39.775Z,74579.91
2023-05-14T13:07:13.525Z,74575.97
2023-05-14T13:08:47.285Z,74572.00
2023-05-14T13:10:21.358Z,74579.91
2023-05-14T13:11:54.918Z,74572.00
2023-05-14T13:13:28.723Z,74591.78
2023-05-14T13:15:02.481Z,74635.25
2023-05-14T13:16:38.060Z,74639.19
2023-05-14T13:18:11.869Z,74615.47
2023-05-14T13:19:45.205Z,74645.13
2023-05-14T13:21:18.650Z,74649.09
2023-05-14T13:22:52.590Z,74658.97
2023-05-14T13:24:26.295Z,74655.00
2023-05-14T13:25:59.420Z,74690.59
2023-05-14T13:27:32.985Z,74670.81
2023-05-14T13:29:06.391Z,74688.63
2023-05-14T13:30:40.128Z,74680.72
2023-05-14T13:32:13.932Z,74662.91
2023-05-14T13:33:47.563Z,74666.88
2023-05-14T13:35:21.046Z,74651.06
2023-05-14T13:36:54.560Z,74682.69
2023-05-14T13:38:27.797Z,74702.44
2023-05-14T13:40:01.363Z,74692.56
2023-05-14T13:41:38.150Z,74704.44
2023-05-14T13:43:11.481Z,74678.72
2023-05-14T13:44:44.989Z,74670.81
2023-05-14T13:46:18.459Z,74676.75
2023-05-14T13:47:52.173Z,74682.69
2023-05-14T13:49:26.077Z,74678.72
2023-05-14T13:50:59.856Z,74676.75
2023-05-14T13:52:33.477Z,74686.63
2023-05-14T13:54:07.226Z,74704.44
2023-05-14T13:55:41.188Z,74708.38
2023-05-14T13:57:15.109Z,74718.25
2023-05-14T13:58:49.631Z,74724.19
2023-05-14T14:00:23.650Z,74741.97
2023-05-14T14:01:56.942Z,74722.22
2023-05-14T14:03:30.656Z,74726.16
2023-05-14T14:05:04.636Z,74736.06
2023-05-14T14:06:41.111Z,74763.72
2023-05-14T14:08:23.949Z,74751.84
2023-05-14T14:09:57.468Z,74761.75
2023-05-14T14:11:31.021Z,74793.38
2023-05-14T14:13:04.410Z,74777.56
2023-05-14T14:14:37.999Z,74793.38
2023-05-14T14:16:11.311Z,74799.28
2023-05-14T14:17:44.705Z,74807.19
2023-05-14T14:19:18.653Z,74793.38
2023-05-14T14:20:52.956Z,74793.38
2023-05-14T14:22:28.950Z,74805.22
2023-05-14T14:24:03.513Z,74819.06
2023-05-14T14:25:36.953Z,74832.91
2023-05-14T14:27:11.310Z,74860.56
2023-05-14T14:28:44.781Z,74874.41
2023-05-14T14:30:18.189Z,74882.31
2023-05-14T14:31:52.137Z,74904.06
2023-05-14T14:33:25.948Z,74908.00
2023-05-14T14:34:59.342Z,74909.97
2023-05-14T14:36:32.640Z,74908.00
2023-05-14T14:38:06.191Z,74915.91
2023-05-14T14:39:39.801Z,74935.69
2023-05-14T14:41:13.251Z,74933.69
2023-05-14T14:42:46.694Z,74947.53
2023-05-14T14:44:23.397Z,74957.41
2023-05-14T14:45:59.301Z,74959.41
2023-05-14T14:47:32.898Z,74967.31
2023-05-14T14:49:06.270Z,74983.13
2023-05-14T14:50:39.639Z,74991.03
2023-05-14T14:52:12.877Z,74991.03
2023-05-14T14:53:46.711Z,75010.78
2023-05-14T14:55:19.981Z,75014.75
2023-05-14T14:56:54.782Z,75026.59
2023-05-14T14:58:29.527Z,75022.66
2023-05-14T15:00:06.365Z,75038.47
2023-05-14T15:01:39.504Z,75046.38
2023-05-14T15:03:15.321Z,75050.31
2023-05-14T15:04:49.303Z,75060.22
2023-05-14T15:06:22.924Z,75070.09
2023-05-14T15:07:56.676Z,75072.06
2023-05-14T15:09:30.507Z,75076.00
2023-05-14T15:11:04.757Z,75089.84
2023-05-14T15:12:38.289Z,75101.72
2023-05-14T15:14:14.877Z,75109.63
2023-05-14T15:15:48.625Z,75119.50
2023-05-14T15:17:25.699Z,75133.34
2023-05-14T15:18:59.232Z,75137.28
2023-05-14T15:20:32.906Z,75141.25
2023-05-14T15:22:06.302Z,75153.09
2023-05-14T15:23:40.086Z,75164.97
2023-05-14T15:25:13.438Z,75176.81
2023-05-14T15:26:47.183Z,75178.81
2023-05-14T15:28:20.395Z,75190.66
2023-05-14T15:29:54.712Z,75196.59
2023-05-14T15:31:28.269Z,75200.53
2023-05-14T15:33:02.577Z,75208.47
2023-05-14T15:34:36.247Z,75224.28
2023-05-14T15:36:10.157Z,75228.22
2023-05-14T15:37:44.520Z,75232.19
2023-05-14T15:39:17.372Z,75244.03
2023-05-14T15:40:51.338Z,75257.88
2023-05-14T15:42:27.058Z,75263.81
2023-05-14T15:44:00.692Z,75275.66
2023-05-14T15:45:34.030Z,75287.53
2023-05-14T15:47:07.560Z,75297.41
2023-05-14T15:48:40.808Z,75307.28
2023-05-14T15:50:14.219Z,75319.16
2023-05-14T15:51:51.548Z,75344.84
2023-05-14T15:53:26.103Z,75340.91
2023-05-14T15:54:59.894Z,75348.81
2023-05-14T15:56:33.311Z,75350.78
2023-05-14T15:58:06.927Z,75364.63
2023-05-14T15:59:40.241Z,75370.53
2023-05-14T16:01:13.743Z,75372.53
2023-05-14T16:02:48.117Z,75376.47
2023-05-14T16:04:24.018Z,75388.34
2023-05-14T16:05:57.869Z,75394.28
2023-05-14T16:07:31.744Z,75406.13
2023-05-14T16:09:05.994Z,75437.75
2023-05-14T16:10:42.295Z,75419.97
2023-05-14T16:12:15.786Z,75431.84
2023-05-14T16:13:49.733Z,75443.69
2023-05-14T16:15:23.308Z,75449.63
2023-05-14T16:16:56.879Z,75455.56
2023-05-14T16:18:30.224Z,75469.38
2023-05-14T16:20:05.538Z,75465.44
2023-05-14T16:21:38.648Z,75481.25
2023-05-14T16:23:11.874Z,75485.19
2023-05-14T16:24:45.311Z,75487.19
2023-05-14T16:26:19.466Z,75493.13
2023-05-14T16:27:53.494Z,75501.03
2023-05-14T16:29:27.014Z,75501.03
2023-05-14T16:31:02.807Z,75503.00
2023-05-14T16:32:37.319Z,75508.94
2023-05-14T16:34:11.016Z,75508.94
2023-05-14T16:35:46.016Z,75516.84
2023-05-14T16:37:23.002Z,75514.84
2023-05-14T16:39:07.155Z,75506.94
2023-05-14T16:40:42.197Z,75506.94
2023-05-14T16:42:19.045Z,75501.03
2023-05-14T16:43:52.914Z,75493.13
2023-05-14T16:45:26.964Z,75493.13
2023-05-14T16:47:00.858Z,75497.06
2023-05-14T16:48:34.102Z,75487.19
2023-05-14T16:50:08.720Z,75493.13
2023-05-14T16:51:43.518Z,75489.16
2023-05-14T16:53:17.045Z,75481.25
2023-05-14T16:54:50.091Z,75477.28
2023-05-14T16:56:23.775Z,75477.28
2023-05-14T16:57:57.553Z,75495.09
2023-05-14T16:59:31.374Z,75512.88
2023-05-14T17:01:06.284Z,75524.75
2023-05-14T17:02:41.038Z,75542.53
2023-05-14T17:04:14.310Z,75544.50
2023-05-14T17:05:47.770Z,75534.63
2023-05-14T17:07:21.272Z,75536.59
2023-05-14T17:08:55.043Z,75540.56
2023-05-14T17:10:28.380Z,75546.50
2023-05-14T17:12:02.040Z,75554.41
2023-05-14T17:13:35.388Z,75564.28
2023-05-14T17:15:09.234Z,75591.97
2023-05-14T17:16:42.917Z,75595.91
2023-05-14T17:18:16.625Z,75576.13
2023-05-14T17:19:50.360Z,75611.72
2023-05-14T17:21:23.506Z,75593.94
2023-05-14T17:22:57.362Z,75582.06
2023-05-14T17:24:30.720Z,75582.06
2023-05-14T17:26:04.339Z,75584.06
2023-05-14T17:27:37.848Z,75584.06
2023-05-14T17:29:11.388Z,75584.06
2023-05-14T17:30:44.609Z,75580.09
2023-05-14T17:32:20.533Z,75601.84
2023-05-14T17:33:54.110Z,75586.03
2023-05-14T17:35:27.629Z,75591.97
2023-05-14T17:37:01.313Z,75597.88
2023-05-14T17:38:34.922Z,75607.78
2023-05-14T17:40:08.745Z,75607.78
2023-05-14T17:41:42.411Z,75631.50
2023-05-14T17:43:15.587Z,75625.56
2023-05-14T17:44:49.000Z,75629.53
2023-05-14T17:46:23.709Z,75633.47
2023-05-14T17:47:57.067Z,75637.44
2023-05-14T17:49:30.607Z,75641.38
2023-05-14T17:51:04.037Z,75645.34
2023-05-14T17:52:38.060Z,75659.16
2023-05-14T17:54:11.388Z,75671.03
2023-05-14T17:55:44.626Z,75665.09
2023-05-14T17:57:17.816Z,75671.03
2023-05-14T17:58:51.348Z,75678.94
2023-05-14T18:00:24.894Z,75678.94
2023-05-14T18:01:58.463Z,75690.81
2023-05-14T18:03:32.164Z,75702.66
2023-05-14T18:05:06.495Z,75712.56
2023-05-14T18:06:40.189Z,75722.44
2023-05-14T18:08:15.282Z,75726.38
2023-05-14T18:09:49.020Z,75732.31
2023-05-14T18:11:22.296Z,75744.19
2023-05-14T18:12:57.039Z,75748.13
2023-05-14T18:14:32.967Z,75748.13
2023-05-14T18:16:06.289Z,75750.13
2023-05-14T18:17:39.589Z,75760.00
2023-05-14T18:19:13.211Z,75779.75
2023-05-14T18:20:49.841Z,75771.84
2023-05-14T18:22:23.459Z,75781.75
2023-05-14T18:23:56.706Z,75785.69
2023-05-14T18:25:30.388Z,75789.66
2023-05-14T18:27:03.687Z,75793.59
2023-05-14T18:28:37.673Z,75793.59
2023-05-14T18:30:15.745Z,75797.56
2023-05-14T18:31:49.244Z,75807.44